Time;durP1;ratioP1;P1;durP2;ratioP2;P2;SDS_P1;SDS_P2;PMS_P1;PMS_P2;Temp;Humidity;BMP_temperature;BMP_pressure;BME280_temperature;BME280_humidity;BME280_pressure;Samples;Min_cycle;Max_cycle;Signal;HPM_P1;HPM_P2
2022/06/18 00:01:35;;;;;;;4.72;4.22;;;;;;;19.37;75.76;101597.38;5009562;28;20071;-73
2022/06/18 00:04:03;;;;;;;5.30;4.47;;;;;;;19.34;75.45;101598.44;5009365;28;20041;-73
2022/06/18 00:06:31;;;;;;;6.75;3.92;;;;;;;19.33;75.59;101588.66;5008218;28;20072;-74
2022/06/18 00:08:56;;;;;;;4.90;3.72;;;;;;;19.33;75.59;101595.88;4994668;28;20145;-73
2022/06/18 00:14:07;;;;;;;7.90;3.95;;;;;;;19.38;75.74;101621.44;5007592;28;20176;-75
2022/06/18 00:16:32;;;;;;;4.80;3.95;;;;;;;19.39;75.75;101606.19;5010574;28;20480;-74
2022/06/18 00:18:58;;;;;;;5.28;4.13;;;;;;;19.42;76.08;101622.06;5006373;28;20030;-74
2022/06/18 00:21:25;;;;;;;4.35;3.90;;;;;;;19.44;75.74;101620.13;5008478;28;20022;-74
2022/06/18 00:23:51;;;;;;;3.70;3.40;;;;;;;19.47;76.53;101619.91;5023452;28;20049;-74
2022/06/18 00:26:17;;;;;;;5.80;4.00;;;;;;;19.50;76.82;101621.53;5040202;28;20045;-74
2022/06/18 00:28:43;;;;;;;4.97;3.65;;;;;;;19.50;76.04;101622.38;5008738;28;20447;-74
2022/06/18 00:31:09;;;;;;;3.72;3.42;;;;;;;19.51;76.06;101618.72;5024617;28;20037;-73
2022/06/18 00:33:40;;;;;;;5.50;4.10;;;;;;;19.50;75.78;101625.06;5010687;28;20823;-73
2022/06/18 00:36:10;;;;;;;4.43;3.25;;;;;;;19.51;75.47;101621.41;5008785;28;20099;-73
2022/06/18 00:38:38;;;;;;;5.75;4.28;;;;;;;19.50;75.80;101617.00;5025857;28;21526;-73
2022/06/18 00:41:05;;;;;;;4.47;3.60;;;;;;;19.47;75.16;101605.63;4988852;28;20232;-73
2022/06/18 00:43:35;;;;;;;4.35;3.60;;;;;;;19.45;75.54;101607.56;5017247;28;20045;-73
2022/06/18 00:46:20;;;;;;;5.93;4.13;;;;;;;19.42;76.35;101608.63;4989402;28;20370;-73
2022/06/18 00:49:08;;;;;;;4.88;3.85;;;;;;;19.39;75.58;101607.03;5008357;28;20044;-73
2022/06/18 00:51:41;;;;;;;4.32;3.92;;;;;;;19.36;76.32;101607.25;5006449;28;20410;-73
2022/06/18 00:54:14;;;;;;;5.38;4.30;;;;;;;19.33;76.57;101604.78;4994552;28;20344;-73
2022/06/18 00:57:07;;;;;;;;;;;;;;;19.30;76.86;101613.06;5023937;28;20080;-73
2022/06/18 00:59:37;;;;;;;4.50;4.10;;;;;;;19.24;75.69;101614.34;5009284;28;19923;-73
2022/06/18 01:02:03;;;;;;;5.07;3.88;;;;;;;19.21;76.14;101602.94;5003265;28;20034;-73
2022/06/18 01:04:38;;;;;;;6.35;4.20;;;;;;;19.16;76.17;101605.13;5008380;28;20388;-73
2022/06/18 01:07:22;;;;;;;5.03;3.95;;;;;;;19.12;76.20;101604.47;5010704;28;20574;-73
2022/06/18 01:09:50;;;;;;;5.85;4.13;;;;;;;19.10;76.33;101612.63;5002850;28;20048;-72
2022/06/18 01:12:16;;;;;;;5.93;4.63;;;;;;;19.07;76.66;101609.31;4969960;28;20053;-72
2022/06/18 01:14:42;;;;;;;5.18;4.68;;;;;;;19.04;77.37;101606.81;5007009;28;20464;-72
2022/06/18 01:17:08;;;;;;;6.47;5.20;;;;;;;19.01;77.46;101602.50;5006283;28;20128;-72
2022/06/18 01:19:43;;;;;;;6.80;5.20;;;;;;;18.97;77.92;101601.00;5007040;28;20029;-72
2022/06/18 01:22:41;;;;;;;8.13;5.70;;;;;;;18.93;77.92;101611.09;4988355;28;20116;-73
2022/06/18 01:25:07;;;;;;;8.45;6.35;;;;;;;18.87;78.69;101604.31;5000384;28;20795;-73
2022/06/18 01:27:34;;;;;;;9.80;6.20;;;;;;;18.82;78.85;101598.41;5008422;28;20139;-72
2022/06/18 01:30:03;;;;;;;9.73;6.28;;;;;;;18.78;81.00;101596.06;5007944;28;20053;-72
2022/06/18 01:32:29;;;;;;;9.77;6.68;;;;;;;18.70;80.68;101585.84;5019013;28;20034;-72
2022/06/18 01:34:54;;;;;;;7.63;6.05;;;;;;;18.65;81.39;101590.66;5000005;28;20546;-72
2022/06/18 01:37:20;;;;;;;9.52;6.75;;;;;;;18.60;82.17;101590.97;5006324;28;20157;-72
2022/06/18 01:39:47;;;;;;;11.18;6.28;;;;;;;18.53;82.39;101582.47;5021940;28;20072;-72
2022/06/18 01:42:15;;;;;;;7.53;6.28;;;;;;;18.49;83.14;101585.47;5007427;28;20119;-72
2022/06/18 01:44:43;;;;;;;10.55;6.18;;;;;;;18.42;83.81;101585.88;5007879;28;20033;-72
2022/06/18 01:47:17;;;;;;;10.27;6.60;;;;;;;18.36;85.47;101585.44;5008631;28;20736;-72
2022/06/18 01:50:10;;;;;;;12.10;6.93;;;;;;;18.29;85.78;101595.69;5006428;28;20794;-72
2022/06/18 01:52:40;;;;;;;10.30;6.95;;;;;;;18.23;86.77;101593.44;5023941;28;20398;-72
2022/06/18 01:55:13;;;;;;;11.15;7.18;;;;;;;18.16;86.61;101595.66;5008170;28;20030;-72
2022/06/18 01:57:43;;;;;;;12.43;7.28;;;;;;;18.09;87.01;101595.19;4991407;28;20484;-72
2022/06/18 02:00:17;;;;;;;9.50;7.20;;;;;;;18.02;87.05;101594.72;5011215;28;20072;-72
2022/06/18 02:02:43;;;;;;;13.30;8.05;;;;;;;17.97;87.82;101596.84;5006608;28;20486;-73
2022/06/18 02:05:09;;;;;;;11.77;7.70;;;;;;;17.93;87.72;101595.34;4991658;28;20052;-72
2022/06/18 02:07:35;;;;;;;11.77;7.55;;;;;;;17.88;87.81;101592.94;5020660;28;20104;-72
2022/06/18 02:10:07;;;;;;;11.00;7.65;;;;;;;17.85;88.38;101593.13;4989414;28;20041;-72
2022/06/18 02:12:34;;;;;;;;;;;;;;;17.84;91.47;101596.78;5024087;28;20037;-72
2022/06/18 02:15:04;;;;;;;11.13;7.43;;;;;;;17.78;88.88;101594.50;5004559;28;19920;-73
2022/06/18 02:17:31;;;;;;;12.88;7.35;;;;;;;17.74;88.54;101595.63;5022343;28;20037;-72
2022/06/18 02:20:09;;;;;;;11.15;8.07;;;;;;;17.71;89.34;101598.53;5006251;28;20037;-73
2022/06/18 02:22:39;;;;;;;12.00;8.35;;;;;;;17.68;88.63;101599.59;5009143;28;20397;-72
2022/06/18 02:25:05;;;;;;;13.98;9.07;;;;;;;17.62;88.64;101597.28;5006720;28;20033;-72
2022/06/18 02:27:31;;;;;;;13.63;8.70;;;;;;;17.58;89.81;101596.63;5009337;28;20852;-73
2022/06/18 02:29:56;;;;;;;13.73;9.20;;;;;;;17.54;89.62;101599.59;5012599;28;21610;-72
2022/06/18 02:32:38;;;;;;;14.75;8.82;;;;;;;17.48;91.23;101596.34;5008669;28;20779;-72
2022/06/18 02:35:12;;;;;;;12.77;9.40;;;;;;;17.43;90.54;101601.13;5006860;28;20037;-72
2022/06/18 02:37:37;;;;;;;13.45;8.70;;;;;;;17.38;90.62;101605.94;5027360;28;20049;-72
2022/06/18 02:40:04;;;;;;;13.63;9.10;;;;;;;17.35;90.70;101606.09;5027793;28;20061;-72
2022/06/18 02:42:33;;;;;;;15.70;9.25;;;;;;;17.30;91.27;101608.19;5011154;28;20022;-72
2022/06/18 02:45:02;;;;;;;14.98;9.32;;;;;;;17.26;91.18;101612.88;5005517;28;20044;-72
2022/06/18 02:47:28;;;;;;;14.82;8.88;;;;;;;17.20;91.29;101614.13;5007665;28;20168;-72
2022/06/18 02:49:57;;;;;;;16.20;9.35;;;;;;;17.16;92.01;101612.59;5006287;28;20037;-72
2022/06/18 02:52:30;;;;;;;13.90;9.77;;;;;;;17.11;91.34;101614.69;5011817;28;20037;-72
2022/06/18 02:55:19;;;;;;;16.00;9.80;;;;;;;17.04;92.72;101606.16;5010279;28;20119;-72
2022/06/18 02:57:47;;;;;;;15.77;9.50;;;;;;;16.98;91.55;101611.84;5017590;28;20730;-72
2022/06/18 03:00:13;;;;;;;13.13;9.75;;;;;;;16.92;92.29;101613.09;5027029;28;20495;-72
2022/06/18 03:02:39;;;;;;;12.52;9.10;;;;;;;16.89;92.50;101612.44;5009912;28;20041;-72
2022/06/18 03:05:05;;;;;;;15.80;9.82;;;;;;;16.84;92.93;101613.56;5010036;28;20032;-73
2022/06/18 03:07:31;;;;;;;15.63;9.77;;;;;;;16.79;92.85;101623.66;5011489;28;20184;-72
2022/06/18 03:12:40;;;;;;;14.27;9.35;;;;;;;16.73;93.60;101639.22;5021302;28;20083;-72
2022/06/18 03:15:06;;;;;;;16.10;9.85;;;;;;;16.68;93.31;101651.03;5024907;28;20112;-73
2022/06/18 03:17:32;;;;;;;15.48;10.07;;;;;;;16.63;93.92;101637.09;5026378;28;20112;-72
2022/06/18 03:20:01;;;;;;;14.07;9.13;;;;;;;16.59;94.25;101640.88;5010667;28;20042;-72
2022/06/18 03:22:26;;;;;;;17.45;9.88;;;;;;;16.55;94.33;101655.38;5009274;28;20021;-72
2022/06/18 03:24:52;;;;;;;14.77;9.45;;;;;;;16.51;94.37;101662.69;5010486;28;20107;-72
2022/06/18 03:27:18;;;;;;;14.63;9.70;;;;;;;16.48;94.59;101667.38;5024690;28;20142;-72
2022/06/18 03:29:44;;;;;;;16.77;9.77;;;;;;;16.43;94.54;101664.97;4992644;28;20561;-72
2022/06/18 03:32:10;;;;;;;14.13;9.27;;;;;;;16.41;94.99;101680.22;5022491;28;20034;-72
2022/06/18 03:34:35;;;;;;;13.35;9.52;;;;;;;16.37;95.19;101679.53;4992490;28;20095;-72
2022/06/18 03:37:01;;;;;;;14.48;9.82;;;;;;;16.35;95.22;101681.41;5010130;28;20042;-72
2022/06/18 03:39:27;;;;;;;13.80;10.07;;;;;;;16.32;95.70;101681.59;5005012;28;20038;-72
2022/06/18 03:41:52;;;;;;;16.58;10.35;;;;;;;16.29;96.64;101674.63;4993479;28;20212;-73
2022/06/18 03:44:18;;;;;;;15.77;9.60;;;;;;;16.29;97.16;101687.13;5007165;28;20565;-72
2022/06/18 03:46:45;;;;;;;17.67;10.27;;;;;;;16.27;96.46;101679.19;5005392;28;20100;-72
2022/06/18 03:49:22;;;;;;;17.33;9.85;;;;;;;16.25;97.15;101681.06;5010736;28;20059;-72
2022/06/18 03:51:48;;;;;;;11.82;9.35;;;;;;;16.23;96.88;101677.63;5010270;28;20033;-72
2022/06/18 03:54:13;;;;;;;16.13;10.82;;;;;;;16.21;97.58;101676.00;5008579;28;20040;-72
2022/06/18 03:56:38;;;;;;;15.98;10.07;;;;;;;16.21;97.74;101676.00;5009034;28;20056;-72
2022/06/18 03:59:04;;;;;;;14.80;9.93;;;;;;;16.20;97.07;101663.59;5011344;28;20443;-72
2022/06/18 04:01:32;;;;;;;17.67;10.70;;;;;;;16.18;97.77;101669.00;5005578;28;20040;-72
2022/06/18 04:03:58;;;;;;;13.50;9.90;;;;;;;16.17;97.79;101666.47;5006581;28;20065;-72
2022/06/18 04:06:24;;;;;;;16.05;10.13;;;;;;;16.17;98.40;101661.13;5021741;28;20210;-73
2022/06/18 04:08:49;;;;;;;16.55;10.73;;;;;;;16.16;99.00;101662.91;5010920;28;20033;-72
2022/06/18 04:11:15;;;;;;;14.00;10.13;;;;;;;16.19;98.87;101676.09;5009763;28;20224;-73
2022/06/18 04:13:41;;;;;;;17.52;10.52;;;;;;;16.21;99.00;101679.53;5021941;28;20690;-72
2022/06/18 04:16:07;;;;;;;16.02;10.70;;;;;;;16.22;98.63;101680.38;5007536;28;20147;-72
2022/06/18 04:18:32;;;;;;;17.27;11.23;;;;;;;16.23;98.91;101677.63;5009743;28;20049;-72
2022/06/18 04:20:59;;;;;;;17.00;10.98;;;;;;;16.25;98.97;101680.22;5004602;28;20030;-72
2022/06/18 04:23:25;;;;;;;20.73;10.63;;;;;;;16.28;99.10;101683.59;5003238;28;20448;-72
2022/06/18 04:25:50;;;;;;;16.67;10.43;;;;;;;16.29;99.42;101696.00;5008188;28;20111;-72
2022/06/18 04:28:17;;;;;;;18.77;11.13;;;;;;;16.31;98.74;101684.34;5025793;28;20060;-72
2022/06/18 04:30:43;;;;;;;14.73;10.45;;;;;;;16.31;99.38;101684.34;5010627;28;20069;-72
2022/06/18 04:33:09;;;;;;;16.05;9.82;;;;;;;16.34;99.17;101690.38;5010181;28;20060;-72
2022/06/18 04:35:35;;;;;;;15.75;10.52;;;;;;;16.35;99.51;101691.25;5010289;28;21391;-72
2022/06/18 04:38:01;;;;;;;16.85;10.15;;;;;;;16.37;99.25;101684.88;5012923;28;20807;-72
2022/06/18 04:40:34;;;;;;;14.75;10.85;;;;;;;16.39;99.54;101685.66;5011078;28;20037;-72
2022/06/18 04:43:01;;;;;;;15.95;10.05;;;;;;;16.43;99.01;101679.19;5012756;28;20034;-72
2022/06/18 04:45:28;;;;;;;13.02;10.10;;;;;;;16.46;99.46;101679.97;5020923;28;20041;-72
2022/06/18 04:47:53;;;;;;;14.18;10.88;;;;;;;16.49;99.45;101677.97;5005429;28;20509;-72
2022/06/18 04:50:22;;;;;;;17.23;10.00;;;;;;;16.53;100.00;101684.88;5022912;28;20078;-72
2022/06/18 04:52:48;;;;;;;16.30;10.05;;;;;;;16.59;99.94;101678.31;5008473;28;20037;-72
2022/06/18 04:55:13;;;;;;;15.88;9.77;;;;;;;16.64;99.44;101686.06;5010731;28;20091;-73
2022/06/18 04:57:39;;;;;;;15.50;9.55;;;;;;;16.68;99.53;101683.09;5005886;28;20042;-72
2022/06/18 05:00:07;;;;;;;12.48;9.25;;;;;;;16.76;100.00;101669.31;5022744;28;20744;-72
2022/06/18 05:02:33;;;;;;;14.55;9.30;;;;;;;16.84;99.23;101680.41;5009493;28;20029;-72
2022/06/18 05:04:59;;;;;;;13.25;8.88;;;;;;;16.92;99.82;101682.63;4990388;28;20049;-73
2022/06/18 05:07:25;;;;;;;16.70;9.60;;;;;;;17.04;99.35;101682.88;5006777;28;20050;-72
2022/06/18 05:09:50;;;;;;;15.18;9.27;;;;;;;17.12;98.79;101669.91;5023820;28;20044;-72
2022/06/18 05:12:16;;;;;;;11.70;8.32;;;;;;;17.16;98.67;101671.44;5022566;28;20052;-72
2022/06/18 05:14:42;;;;;;;17.30;8.82;;;;;;;17.22;98.31;101679.09;5003864;28;20033;-72
2022/06/18 05:17:26;;;;;;;18.15;9.13;;;;;;;17.34;98.75;101696.22;5023683;28;20519;-72
2022/06/18 05:19:51;;;;;;;17.75;8.45;;;;;;;17.44;97.87;101699.19;5025230;28;20037;-72
2022/06/18 05:22:17;;;;;;;14.73;8.23;;;;;;;17.57;97.15;101703.78;5007831;28;21105;-72
2022/06/18 05:24:42;;;;;;;13.05;7.68;;;;;;;17.68;96.82;101703.13;5008278;28;22080;-72
2022/06/18 05:27:19;;;;;;;10.95;7.57;;;;;;;17.81;96.63;101708.59;5020240;28;20095;-73
2022/06/18 05:29:45;;;;;;;11.13;6.60;;;;;;;17.89;95.85;101711.66;5020365;28;20028;-73
2022/06/18 05:32:10;;;;;;;12.18;6.47;;;;;;;18.02;96.52;101715.28;4988512;28;20037;-73
2022/06/18 05:34:36;;;;;;;10.35;6.63;;;;;;;18.19;96.32;101718.72;4996984;28;20022;-83
2022/06/18 05:37:02;;;;;;;12.23;6.95;;;;;;;18.33;95.57;101728.56;5024645;28;20581;-82
2022/06/18 05:39:27;;;;;;;12.48;6.82;;;;;;;18.45;95.16;101718.84;5009849;28;20036;-85
2022/06/18 05:41:53;;;;;;;8.90;6.13;;;;;;;18.58;95.07;101718.94;5007220;28;20040;-82
2022/06/18 05:44:18;;;;;;;8.70;5.50;;;;;;;18.65;94.37;101716.69;5004250;28;20176;-83
2022/06/18 05:46:44;;;;;;;8.38;5.97;;;;;;;18.78;94.23;101714.91;4991759;28;20037;-83
2022/06/18 05:49:09;;;;;;;7.90;5.47;;;;;;;18.83;93.89;101722.66;5010531;28;20187;-84
2022/06/18 05:51:35;;;;;;;7.85;6.10;;;;;;;18.92;93.71;101715.81;5005011;28;20395;-72
2022/06/18 05:54:01;;;;;;;9.20;5.28;;;;;;;19.00;93.53;101716.16;5006685;28;20794;-72
2022/06/18 05:56:26;;;;;;;9.90;5.10;;;;;;;19.02;93.57;101716.97;5006877;28;20052;-71
2022/06/18 05:58:52;;;;;;;8.77;4.93;;;;;;;19.05;93.61;101716.72;5006942;28;20041;-73
2022/06/18 06:01:17;;;;;;;7.82;4.75;;;;;;;19.11;93.68;101724.38;5006191;28;20175;-73
2022/06/18 06:03:43;;;;;;;7.03;4.93;;;;;;;19.19;93.79;101712.25;5003126;28;20042;-73
2022/06/18 06:06:09;;;;;;;8.45;4.95;;;;;;;19.24;93.49;101716.31;5008646;28;20036;-73
2022/06/18 06:08:34;;;;;;;7.85;4.18;;;;;;;19.30;93.75;101715.06;5004073;28;21028;-73
2022/06/18 06:13:44;;;;;;;6.10;4.30;;;;;;;19.59;93.30;101724.72;5020047;28;20033;-73
2022/06/18 06:16:11;;;;;;;5.22;3.80;;;;;;;19.76;93.36;101726.22;5008563;28;20181;-73
2022/06/18 06:18:36;;;;;;;8.27;4.35;;;;;;;19.87;92.45;101720.94;5007257;28;20041;-73
2022/06/18 06:21:02;;;;;;;6.53;3.88;;;;;;;20.00;91.90;101723.63;4984992;28;20060;-73
2022/06/18 06:23:28;;;;;;;5.72;3.60;;;;;;;20.11;91.40;101724.72;5006322;28;20045;-83
2022/06/18 06:25:55;;;;;;;5.90;3.30;;;;;;;20.20;90.60;101724.91;5000197;28;20029;-76
2022/06/18 06:28:26;;;;;;;6.28;2.90;;;;;;;20.39;91.29;101726.25;5005342;28;20037;-82
2022/06/18 06:30:52;;;;;;;4.38;3.17;;;;;;;20.59;90.55;101738.22;5003750;28;20094;-82
2022/06/18 06:33:18;;;;;;;6.10;2.55;;;;;;;20.73;89.81;101734.50;5017236;28;20083;-82
2022/06/18 06:35:45;;;;;;;4.47;2.90;;;;;;;20.92;88.80;101738.50;5021311;28;20112;-80
2022/06/18 06:38:11;;;;;;;5.45;2.88;;;;;;;21.05;88.42;101734.88;5001473;28;20033;-83
2022/06/18 06:40:37;;;;;;;4.43;2.50;;;;;;;21.13;87.45;101737.88;5005820;28;20034;-76
2022/06/18 06:43:03;;;;;;;4.00;2.50;;;;;;;21.14;87.37;101744.97;5003584;28;20036;-84
2022/06/18 06:45:31;;;;;;;3.20;2.53;;;;;;;21.23;86.89;101746.06;4990644;28;20693;-82
2022/06/18 06:47:57;;;;;;;2.80;2.20;;;;;;;21.24;86.56;101745.97;5007607;28;20119;-84
2022/06/18 06:50:24;;;;;;;3.45;1.88;;;;;;;21.32;86.77;101747.22;5023530;28;21368;-83
2022/06/18 06:52:50;;;;;;;2.72;1.70;;;;;;;21.47;86.26;101755.94;5002153;28;20041;-81
2022/06/18 06:58:14;;;;;;;3.28;1.90;;;;;;;21.54;85.40;101758.06;5004620;28;20065;-80
2022/06/18 07:00:42;;;;;;;3.25;1.65;;;;;;;21.65;85.46;101765.28;4989544;28;20038;-82
2022/06/18 07:03:20;;;;;;;1.73;1.30;;;;;;;21.90;84.90;101768.75;4993377;28;20059;-83
2022/06/18 07:05:46;;;;;;;1.15;1.00;;;;;;;22.03;84.08;101768.66;5007625;28;20179;-81
2022/06/18 07:08:12;;;;;;;1.45;0.90;;;;;;;22.03;82.68;101768.66;5021395;28;20053;-83
2022/06/18 07:10:38;;;;;;;1.08;0.80;;;;;;;21.99;82.88;101775.25;5012556;28;20041;-84
2022/06/18 07:13:04;;;;;;;0.82;0.82;;;;;;;22.12;82.16;101777.84;4998986;28;20036;-82
2022/06/18 07:15:30;;;;;;;1.33;0.80;;;;;;;22.17;81.70;101780.16;5024764;28;20153;-80
2022/06/18 07:17:57;;;;;;;1.67;0.70;;;;;;;22.30;81.34;101778.19;5010223;28;20094;-83
2022/06/18 07:20:23;;;;;;;2.42;0.70;;;;;;;22.41;80.31;101776.44;5016815;28;20566;-81
2022/06/18 07:22:48;;;;;;;1.20;0.80;;;;;;;22.35;80.50;101762.47;5025869;28;20037;-80
2022/06/18 07:25:15;;;;;;;1.23;0.65;;;;;;;22.43;80.55;101763.72;5012291;28;20488;-79
2022/06/18 07:27:41;;;;;;;1.17;0.60;;;;;;;22.52;80.07;101758.44;5022765;28;20499;-85
2022/06/18 07:30:08;;;;;;;1.98;0.80;;;;;;;22.55;78.91;101770.81;5021158;28;20048;-83
2022/06/18 07:32:36;;;;;;;0.75;0.75;;;;;;;22.56;79.15;101775.25;5022404;28;20052;-82
2022/06/18 07:35:02;;;;;;;0.43;0.43;;;;;;;22.69;78.85;101768.81;5009243;28;20029;-82
2022/06/18 07:37:29;;;;;;;1.45;0.75;;;;;;;22.68;78.04;101775.19;5007642;28;20033;-80
2022/06/18 07:39:55;;;;;;;0.80;0.60;;;;;;;22.79;78.15;101776.00;4995189;28;20045;-83
2022/06/18 07:42:21;;;;;;;1.27;0.77;;;;;;;22.86;77.28;101786.28;5025784;28;20044;-83
2022/06/18 07:44:47;;;;;;;0.75;0.60;;;;;;;22.93;77.40;101782.97;5001516;28;21706;-83
2022/06/18 07:47:14;;;;;;;2.25;0.80;;;;;;;23.01;76.69;101792.25;5008261;28;20038;-80
2022/06/18 07:49:41;;;;;;;0.98;0.70;;;;;;;23.10;76.58;101791.47;5001305;28;20025;-82
2022/06/18 07:52:06;;;;;;;1.90;0.77;;;;;;;23.24;75.95;101789.44;5005123;28;20164;-82
2022/06/18 07:54:32;;;;;;;2.35;0.60;;;;;;;23.29;75.24;101792.63;5023064;28;20029;-80
2022/06/18 07:56:57;;;;;;;0.60;0.60;;;;;;;23.43;75.61;101786.91;5012988;28;20045;-81
2022/06/18 07:59:26;;;;;;;1.90;0.80;;;;;;;23.49;74.07;101779.28;5000004;28;20041;-81
2022/06/18 08:01:52;;;;;;;1.00;0.90;;;;;;;23.46;74.48;101778.56;5013294;28;20092;-83
2022/06/18 08:04:18;;;;;;;1.73;0.77;;;;;;;23.46;74.87;101785.81;5010859;28;20041;-83
2022/06/18 08:06:43;;;;;;;0.70;0.70;;;;;;;23.46;74.51;101783.97;5012687;28;21471;-87
2022/06/18 08:09:10;;;;;;;2.05;0.85;;;;;;;23.39;74.57;101774.69;5012034;28;20126;-85
2022/06/18 08:11:37;;;;;;;1.42;0.70;;;;;;;23.53;74.87;101769.94;5014060;28;20122;-81
2022/06/18 08:14:03;;;;;;;1.45;0.90;;;;;;;23.62;74.66;101776.41;5012664;28;20234;-87
2022/06/18 08:16:29;;;;;;;1.75;1.10;;;;;;;23.64;74.60;101786.06;5013038;28;20076;-87
2022/06/18 08:18:54;;;;;;;0.70;0.70;;;;;;;23.71;74.30;101784.53;5011628;28;20037;-86
2022/06/18 08:21:29;;;;;;;0.80;0.80;;;;;;;23.83;73.44;101774.50;5010395;28;20079;-88
2022/06/18 08:24:00;;;;;;;0.85;0.80;;;;;;;23.81;72.72;101781.88;4992757;28;20025;-88
2022/06/18 08:26:26;;;;;;;0.70;0.68;;;;;;;23.63;73.88;101784.34;5011592;28;20488;-88
2022/06/18 08:28:51;;;;;;;2.40;0.90;;;;;;;23.56;73.99;101784.03;5013203;28;20033;-84
2022/06/18 08:31:17;;;;;;;1.33;1.23;;;;;;;23.53;74.16;101786.16;5023936;28;20095;-88
2022/06/18 08:33:43;;;;;;;1.35;1.00;;;;;;;23.37;74.46;101784.75;5012153;28;20037;-88
2022/06/18 08:36:11;;;;;;;0.85;0.70;;;;;;;23.35;73.56;101775.94;5012279;28;20785;-86
2022/06/18 08:38:38;;;;;;;0.90;0.77;;;;;;;23.38;74.63;101781.09;5014010;28;20022;-89
2022/06/18 08:41:32;;;;;;;5.32;0.90;;;;;;;23.52;71.78;101787.97;5012969;28;20025;-86
2022/06/18 08:44:20;;;;;;;2.22;0.75;;;;;;;23.51;72.04;101796.22;5013518;28;20057;-90
2022/06/18 08:46:46;;;;;;;0.50;0.50;;;;;;;23.60;74.00;101800.84;5006324;28;20380;-89
2022/06/18 08:49:49;;;;;;;0.40;0.40;;;;;;;23.74;70.81;101796.91;5010796;28;20068;-85
2022/06/18 08:52:33;;;;;;;1.00;0.68;;;;;;;23.61;72.75;101791.75;5009909;28;20056;-88
2022/06/18 08:55:02;;;;;;;1.23;0.50;;;;;;;23.50;69.34;101794.50;5007428;28;20045;-86
2022/06/18 08:57:43;;;;;;;1.95;0.50;;;;;;;23.47;72.79;101803.72;5023392;28;20396;-89
2022/06/18 09:00:24;;;;;;;1.65;0.77;;;;;;;23.45;71.63;101782.25;5025052;28;20193;-90
2022/06/18 09:03:10;;;;;;;1.65;0.75;;;;;;;23.41;71.95;101799.72;5027845;28;20025;-87
2022/06/18 09:05:45;;;;;;;0.70;0.63;;;;;;;23.36;71.46;101799.25;5016441;28;20157;-87
2022/06/18 09:08:26;;;;;;;1.90;0.75;;;;;;;23.37;71.77;101795.56;5012133;28;20041;-86
2022/06/18 09:11:11;;;;;;;1.73;0.60;;;;;;;23.33;71.58;101786.00;5030724;28;20583;-87
2022/06/18 09:14:14;;;;;;;0.90;0.60;;;;;;;23.43;71.81;101786.91;5005177;28;20454;-78
2022/06/18 09:16:45;;;;;;;2.05;0.77;;;;;;;23.58;72.54;101786.59;5011776;28;20069;-75
2022/06/18 09:19:16;;;;;;;2.42;1.02;;;;;;;23.76;71.49;101797.66;4992223;28;20041;-77
2022/06/18 09:21:55;;;;;;;0.93;0.60;;;;;;;23.91;71.65;101795.44;5007316;28;20029;-80
2022/06/18 09:24:46;;;;;;;1.17;0.70;;;;;;;24.10;68.27;101796.56;5017036;28;21628;-75
2022/06/18 09:27:21;;;;;;;1.48;0.70;;;;;;;23.94;69.22;101791.63;5024979;28;20049;-76
2022/06/18 09:29:53;;;;;;;2.90;0.68;;;;;;;23.91;69.60;101792.75;5009549;28;20030;-76
2022/06/18 09:32:39;;;;;;;1.73;0.70;;;;;;;23.88;68.67;101783.06;5025123;28;20030;-76
2022/06/18 09:35:30;;;;;;;1.20;0.70;;;;;;;23.94;69.16;101787.09;5022759;28;20033;-75
2022/06/18 09:37:57;;;;;;;1.08;0.75;;;;;;;24.01;69.25;101796.38;5010422;28;20122;-76
2022/06/18 09:40:46;;;;;;;1.33;0.68;;;;;;;24.13;68.21;101789.03;5008741;28;20464;-77
2022/06/18 09:43:23;;;;;;;1.23;0.73;;;;;;;24.20;68.10;101788.50;5010510;28;20049;-76
2022/06/18 09:45:51;;;;;;;0.85;0.50;;;;;;;24.14;67.64;101787.19;5008679;28;20041;-76
2022/06/18 09:48:17;;;;;;;0.95;0.70;;;;;;;24.18;67.60;101791.31;4992702;28;20033;-75
2022/06/18 09:50:53;;;;;;;1.33;0.60;;;;;;;24.36;66.71;101788.81;4980191;28;20400;-76
2022/06/18 09:53:30;;;;;;;1.70;0.60;;;;;;;24.27;66.13;101793.22;5009364;28;20440;-76
2022/06/18 09:56:02;;;;;;;1.00;0.65;;;;;;;24.11;66.86;101798.28;5025773;28;20045;-77
2022/06/18 09:58:36;;;;;;;1.13;0.75;;;;;;;24.04;67.17;101803.34;5013278;28;20098;-76
2022/06/18 10:01:03;;;;;;;0.82;0.55;;;;;;;23.97;66.96;101796.78;4991240;28;20032;-76
2022/06/18 10:06:55;;;;;;;1.70;0.57;;;;;;;23.84;66.25;101786.16;4998724;28;20162;-76
2022/06/18 10:09:43;;;;;;;1.08;0.70;;;;;;;23.60;66.48;101782.75;5010087;28;20048;-77
2022/06/18 10:12:17;;;;;;;2.28;0.50;;;;;;;23.49;66.04;101766.66;4992818;28;20038;-77
2022/06/18 10:14:43;;;;;;;1.00;0.40;;;;;;;23.44;66.50;101769.72;4993779;28;20045;-76
2022/06/18 10:17:20;;;;;;;0.38;0.38;;;;;;;23.64;66.04;101769.00;5010595;28;20370;-77
2022/06/18 10:20:25;;;;;;;0.55;0.50;;;;;;;23.81;65.96;101764.81;5010246;28;20095;-76
2022/06/18 10:23:21;;;;;;;0.57;0.50;;;;;;;24.05;65.11;101767.19;5010156;28;20033;-76
2022/06/18 10:25:58;;;;;;;0.70;0.50;;;;;;;24.23;64.25;101745.78;5025577;28;20034;-76
2022/06/18 10:28:46;;;;;;;0.68;0.60;;;;;;;24.39;63.70;101744.38;5010243;28;20437;-76
2022/06/18 10:31:18;;;;;;;0.95;0.60;;;;;;;24.24;63.86;101742.09;5010366;28;20038;-77
2022/06/18 10:33:50;;;;;;;1.33;0.73;;;;;;;24.12;64.71;101751.28;5007321;28;20328;-77
2022/06/18 10:36:48;;;;;;;1.08;0.70;;;;;;;23.93;64.71;101754.75;4992246;28;21115;-79
2022/06/18 10:39:48;;;;;;;0.50;0.50;;;;;;;23.97;64.28;101748.94;5009205;28;21728;-76
2022/06/18 10:42:34;;;;;;;0.40;0.40;;;;;;;24.04;64.66;101726.75;5006043;28;20536;-77
2022/06/18 10:45:21;;;;;;;2.40;0.68;;;;;;;24.04;64.91;101737.56;5009763;28;20061;-77
2022/06/18 10:47:49;;;;;;;1.13;0.70;;;;;;;24.01;65.35;101742.28;5015759;28;21494;-77
2022/06/18 10:50:17;;;;;;;0.80;0.50;;;;;;;23.98;64.94;101745.25;5012781;28;20035;-77
2022/06/18 10:52:44;;;;;;;1.23;0.60;;;;;;;23.83;64.95;101752.88;5028971;28;20092;-77
2022/06/18 10:55:20;;;;;;;2.83;0.60;;;;;;;23.67;65.06;101750.66;5015093;28;20480;-77
2022/06/18 10:57:48;;;;;;;1.38;0.55;;;;;;;23.70;65.36;101755.78;5009574;28;20612;-77
2022/06/18 11:00:27;;;;;;;0.52;0.50;;;;;;;23.77;64.87;101755.25;5028337;28;20029;-77
2022/06/18 11:03:00;;;;;;;0.88;0.70;;;;;;;23.71;65.54;101741.28;5011850;28;20037;-77
2022/06/18 11:05:29;;;;;;;1.02;0.55;;;;;;;23.55;65.66;101754.44;4997058;28;20125;-80
2022/06/18 11:07:55;;;;;;;0.80;0.52;;;;;;;23.54;65.53;101760.84;5013241;28;20467;-79
2022/06/18 11:10:36;;;;;;;0.75;0.70;;;;;;;23.36;64.69;101756.03;5000195;28;20103;-76
2022/06/18 11:13:05;;;;;;;1.00;0.50;;;;;;;23.25;65.87;101756.06;5013286;28;20092;-78
2022/06/18 11:15:33;;;;;;;0.60;0.50;;;;;;;23.28;66.06;101759.38;5008668;28;21081;-77
2022/06/18 11:18:01;;;;;;;0.82;0.70;;;;;;;23.43;65.69;101757.19;4996524;28;20506;-77
2022/06/18 11:20:30;;;;;;;1.10;0.60;;;;;;;23.50;64.92;101762.06;5028701;28;20033;-75
2022/06/18 11:23:04;;;;;;;0.77;0.60;;;;;;;23.43;64.61;101749.09;5013368;28;20112;-77
2022/06/18 11:25:44;;;;;;;1.08;0.70;;;;;;;23.41;65.26;101748.38;5028607;28;20897;-77
2022/06/18 11:28:28;;;;;;;1.38;0.70;;;;;;;23.52;64.74;101760.13;5016261;28;20044;-81
2022/06/18 11:30:54;;;;;;;1.33;0.60;;;;;;;23.53;64.79;101767.22;5013006;28;20718;-79
2022/06/18 11:33:41;;;;;;;0.95;0.57;;;;;;;23.59;64.91;101772.94;5013424;28;20650;-80
2022/06/18 11:36:12;;;;;;;1.02;0.70;;;;;;;23.75;64.28;101779.72;4989529;28;20106;-79
2022/06/18 11:38:39;;;;;;;0.75;0.63;;;;;;;23.77;64.02;101782.28;5011084;28;20033;-80
2022/06/18 11:41:19;;;;;;;0.65;0.50;;;;;;;23.82;63.27;101780.91;5028618;28;20044;-77
2022/06/18 11:43:59;;;;;;;0.70;0.65;;;;;;;23.88;63.38;101776.81;5028130;28;20037;-74
2022/06/18 11:46:33;;;;;;;1.75;0.80;;;;;;;24.09;63.76;101773.22;5016319;28;20038;-78
2022/06/18 11:49:06;;;;;;;1.45;0.65;;;;;;;24.22;63.47;101767.56;5011798;28;20041;-77
2022/06/18 11:51:50;;;;;;;1.05;0.60;;;;;;;24.26;61.73;101761.75;5015686;28;20084;-75